Terminal Aerodrome Forecast
Issued by NWS Cheyenne, WY

Home | Current Version | Previous Version | Text Only | Print | Product List | Glossary On
Versions: 1 2 3 4 5 6 7 8 9 10 11 12 13 14 15 16 17 18 19 20 21 22 23 24 25 26
000
FTUS45 KCYS 211100
TAFCYS
TAF
KCYS 211120Z 2112/2212 26008KT P6SM SCT200
     FM220100 21010KT P6SM VCSH SCT050 BKN100
     FM220600 31010KT P6SM SCT100 SCT200=

USA.gov is the U.S. government's official web portal to all federal, state and local government web resources and services.